Time;durP1;ratioP1;P1;durP2;ratioP2;P2;SDS_P1;SDS_P2;PMS_P1;PMS_P2;Temp;Humidity;BMP_temperature;BMP_pressure;BME280_temperature;BME280_humidity;BME280_pressure;Samples;Min_cycle;Max_cycle;Signal;HPM_P1;HPM_P2
2022/03/09 00:01:42;;;;;;;8.63;5.97;;;0.80;52.80;;;;;;928656;150;27323;-81
2022/03/09 00:04:08;;;;;;;6.90;4.90;;;0.80;53.00;;;;;;930298;150;27378;-79
2022/03/09 00:06:35;;;;;;;8.70;6.57;;;0.70;52.90;;;;;;914141;150;27381;-79
2022/03/09 00:09:01;;;;;;;6.17;5.50;;;0.70;52.90;;;;;;928693;148;27299;-79
2022/03/09 00:11:28;;;;;;;7.87;6.10;;;0.70;53.10;;;;;;929294;148;27720;-79
2022/03/09 00:13:55;;;;;;;15.63;9.67;;;0.60;53.10;;;;;;927765;148;27358;-79
2022/03/09 00:16:21;;;;;;;13.93;8.70;;;0.60;53.10;;;;;;930088;148;27599;-79
2022/03/09 00:18:48;;;;;;;9.67;7.13;;;0.60;53.20;;;;;;928103;148;27835;-79
2022/03/09 00:21:14;;;;;;;10.37;6.73;;;0.60;53.40;;;;;;928358;148;27384;-79
2022/03/09 00:23:41;;;;;;;8.10;5.73;;;0.60;53.40;;;;;;928378;150;27346;-79
2022/03/09 00:26:07;;;;;;;12.53;7.77;;;0.50;53.40;;;;;;930877;150;27464;-79
2022/03/09 00:28:34;;;;;;;10.03;6.77;;;0.50;53.50;;;;;;925474;149;27361;-79
2022/03/09 00:31:01;;;;;;;14.13;9.13;;;0.50;53.60;;;;;;921698;149;27373;-79
2022/03/09 00:33:27;;;;;;;11.20;6.97;;;0.50;53.80;;;;;;926006;149;27387;-79
2022/03/09 00:35:54;;;;;;;10.60;6.37;;;0.50;53.90;;;;;;913524;150;27404;-79
2022/03/09 00:38:20;;;;;;;6.77;4.80;;;0.50;54.00;;;;;;927899;149;27259;-79
2022/03/09 00:40:48;;;;;;;6.03;4.97;;;0.40;54.00;;;;;;932525;150;27377;-79
2022/03/09 00:43:14;;;;;;;6.90;5.60;;;0.40;54.00;;;;;;927648;150;27338;-79
2022/03/09 00:45:40;;;;;;;5.87;5.13;;;0.40;54.10;;;;;;917594;150;27386;-79
2022/03/09 00:48:07;;;;;;;6.47;5.23;;;0.40;54.00;;;;;;916698;152;27405;-79
2022/03/09 00:50:33;;;;;;;6.03;4.50;;;0.40;54.00;;;;;;931644;148;27453;-79
2022/03/09 00:53:00;;;;;;;7.77;4.50;;;0.40;54.10;;;;;;928675;148;27316;-79
2022/03/09 00:55:26;;;;;;;8.30;4.80;;;0.30;54.00;;;;;;925011;149;27361;-79
2022/03/09 00:57:53;;;;;;;5.47;4.30;;;0.30;54.10;;;;;;931486;150;27387;-79
2022/03/09 01:00:20;;;;;;;8.00;4.53;;;0.30;54.10;;;;;;930958;150;27471;-79
2022/03/09 01:02:46;;;;;;;6.30;4.93;;;0.20;54.20;;;;;;921651;149;27357;-79
2022/03/09 01:05:13;;;;;;;5.57;4.50;;;0.20;54.30;;;;;;926114;149;27279;-79
2022/03/09 01:07:39;;;;;;;7.03;4.40;;;0.10;54.30;;;;;;926720;149;27403;-79
2022/03/09 01:10:06;;;;;;;5.27;4.53;;;0.10;54.20;;;;;;928168;149;27346;-79
2022/03/09 01:12:33;;;;;;;6.77;4.50;;;0.10;54.20;;;;;;921369;150;27308;-79
2022/03/09 01:14:59;;;;;;;4.57;3.30;;;0.00;54.20;;;;;;929267;148;27362;-79
2022/03/09 01:17:26;;;;;;;3.77;3.47;;;0.00;54.20;;;;;;928761;148;27883;-79
2022/03/09 01:19:52;;;;;;;5.43;4.40;;;0.00;54.30;;;;;;938172;146;27793;-79
2022/03/09 01:22:19;;;;;;;5.00;4.53;;;-0.10;54.40;;;;;;945838;146;27375;-79
2022/03/09 01:24:46;;;;;;;5.67;4.13;;;-0.10;54.40;;;;;;945451;146;27343;-79
2022/03/09 01:27:12;;;;;;;4.73;4.20;;;-0.10;54.40;;;;;;944775;146;27333;-79
2022/03/09 01:29:39;;;;;;;6.37;4.50;;;-0.20;54.40;;;;;;941573;147;27406;-79
2022/03/09 01:32:05;;;;;;;6.90;4.73;;;-0.20;54.50;;;;;;935971;149;27341;-79
2022/03/09 01:34:32;;;;;;;5.90;4.13;;;-0.20;54.60;;;;;;936492;149;27382;-79
2022/03/09 01:36:58;;;;;;;7.17;4.87;;;-0.20;54.70;;;;;;936909;149;27895;-79
2022/03/09 01:39:25;;;;;;;7.43;5.43;;;-0.20;54.90;;;;;;936415;149;27481;-79
2022/03/09 01:41:52;;;;;;;6.57;5.77;;;-0.20;54.90;;;;;;935818;149;27398;-79
2022/03/09 01:44:18;;;;;;;8.97;5.63;;;-0.30;55.00;;;;;;935422;149;27360;-79
2022/03/09 01:46:48;;;;;;;5.93;4.17;;;-0.30;55.00;;;;;;937157;149;27407;-79
2022/03/09 01:49:14;;;;;;;8.53;5.40;;;-0.30;55.10;;;;;;936590;149;27403;-79
2022/03/09 01:51:41;;;;;;;6.30;5.70;;;-0.20;55.10;;;;;;935914;149;27450;-79
2022/03/09 01:54:08;;;;;;;6.90;5.73;;;-0.20;55.30;;;;;;935954;149;27372;-79
2022/03/09 01:56:34;;;;;;;10.70;6.17;;;-0.20;55.50;;;;;;935973;149;27701;-79
2022/03/09 01:59:04;;;;;;;8.77;5.17;;;-0.20;55.30;;;;;;937867;149;27365;-79
2022/03/09 02:01:30;;;;;;;5.80;4.77;;;-0.20;55.20;;;;;;936524;149;27355;-79
2022/03/09 02:03:57;;;;;;;7.17;5.23;;;-0.20;55.00;;;;;;936643;149;27354;-79
2022/03/09 02:06:23;;;;;;;7.53;5.33;;;-0.20;55.30;;;;;;936898;149;27457;-79
2022/03/09 02:11:35;;;;;;;7.80;5.20;;;-0.10;55.60;;;;;;935903;149;27322;-79
2022/03/09 02:14:01;;;;;;;8.20;5.37;;;-0.10;55.60;;;;;;936475;149;27337;-79
2022/03/09 02:16:28;;;;;;;6.27;5.37;;;-0.10;55.80;;;;;;935653;149;27467;-79
2022/03/09 02:18:55;;;;;;;6.47;4.73;;;-0.10;55.60;;;;;;935684;149;27500;-79
2022/03/09 02:21:21;;;;;;;7.07;5.03;;;-0.10;55.80;;;;;;924150;149;27446;-79
2022/03/09 02:23:48;;;;;;;7.00;4.63;;;-0.10;55.90;;;;;;929676;151;27408;-79
2022/03/09 02:26:14;;;;;;;9.10;5.63;;;-0.20;55.80;;;;;;935454;151;27296;-79
2022/03/09 02:28:41;;;;;;;6.23;4.97;;;-0.20;55.80;;;;;;926263;151;27338;-79
2022/03/09 02:31:07;;;;;;;7.60;5.00;;;-0.20;56.00;;;;;;927878;151;27468;-79
2022/03/09 02:33:34;;;;;;;7.83;5.70;;;-0.20;56.10;;;;;;925864;151;27391;-79
2022/03/09 02:36:01;;;;;;;8.40;5.30;;;-0.20;56.30;;;;;;937168;151;27386;-79
2022/03/09 02:38:27;;;;;;;5.40;4.90;;;-0.20;56.40;;;;;;935629;149;27338;-79
2022/03/09 02:40:54;;;;;;;6.60;4.70;;;-0.20;56.40;;;;;;932864;151;27321;-79
2022/03/09 02:43:21;;;;;;;5.77;4.60;;;-0.20;56.50;;;;;;929653;151;27436;-79
2022/03/09 02:45:47;;;;;;;7.13;5.33;;;-0.30;56.50;;;;;;935605;151;27353;-79
2022/03/09 02:48:14;;;;;;;5.97;4.77;;;-0.30;56.50;;;;;;926575;151;27446;-79
2022/03/09 02:50:40;;;;;;;5.03;4.57;;;-0.30;56.60;;;;;;927997;151;27400;-80
2022/03/09 02:53:07;;;;;;;7.20;5.20;;;-0.30;57.00;;;;;;923873;153;27293;-79
2022/03/09 02:55:33;;;;;;;5.93;5.23;;;-0.40;56.70;;;;;;924298;153;27367;-79
2022/03/09 02:58:00;;;;;;;7.73;5.07;;;-0.40;56.70;;;;;;931298;151;27310;-79
2022/03/09 03:00:26;;;;;;;6.93;4.53;;;-0.50;56.70;;;;;;925366;153;27703;-79
2022/03/09 03:02:53;;;;;;;5.63;5.03;;;-0.50;56.70;;;;;;925744;151;27385;-79
2022/03/09 03:05:20;;;;;;;8.20;5.47;;;-0.50;56.70;;;;;;938387;150;27336;-79
2022/03/09 03:07:46;;;;;;;6.53;5.33;;;-0.60;56.80;;;;;;940074;149;27393;-79
2022/03/09 03:10:13;;;;;;;6.67;5.30;;;-0.60;56.70;;;;;;928636;151;27425;-79
2022/03/09 03:12:39;;;;;;;5.80;5.07;;;-0.70;56.70;;;;;;925825;151;27386;-79
2022/03/09 03:15:06;;;;;;;6.83;4.73;;;-0.70;56.70;;;;;;924967;151;28900;-79
2022/03/09 03:17:38;;;;;;;7.73;5.10;;;-0.70;56.80;;;;;;939646;151;27294;-79
2022/03/09 03:20:05;;;;;;;8.90;5.90;;;-0.80;56.80;;;;;;938700;151;27438;-75
2022/03/09 03:22:31;;;;;;;8.07;5.57;;;-0.80;56.90;;;;;;937105;149;27377;-78
2022/03/09 03:24:58;;;;;;;6.77;5.47;;;-0.80;57.00;;;;;;936568;149;27453;-75
2022/03/09 03:27:25;;;;;;;8.13;5.17;;;-0.90;57.00;;;;;;936928;149;27415;-75
2022/03/09 03:29:51;;;;;;;9.70;5.40;;;-0.90;57.00;;;;;;920048;150;27422;-78
2022/03/09 03:32:18;;;;;;;6.97;5.10;;;-0.90;57.10;;;;;;936809;148;27367;-75
2022/03/09 03:34:44;;;;;;;8.83;5.43;;;-1.00;57.20;;;;;;938522;148;27359;-76
2022/03/09 03:37:11;;;;;;;7.23;5.60;;;-1.00;57.10;;;;;;933694;150;27391;-78
2022/03/09 03:39:37;;;;;;;9.27;5.67;;;-1.00;57.20;;;;;;935402;149;27395;-78
2022/03/09 03:42:04;;;;;;;7.70;6.00;;;-1.00;57.20;;;;;;930956;150;27337;-78
2022/03/09 03:44:31;;;;;;;8.90;5.90;;;-1.00;57.60;;;;;;933139;150;27318;-78
2022/03/09 03:46:57;;;;;;;6.73;5.17;;;-1.00;57.80;;;;;;933382;150;27414;-78
2022/03/09 03:49:24;;;;;;;8.93;5.97;;;-1.00;57.80;;;;;;933879;150;27427;-78
2022/03/09 03:51:50;;;;;;;7.53;4.70;;;-1.00;58.00;;;;;;934811;150;27382;-78
2022/03/09 03:54:17;;;;;;;5.57;4.00;;;-1.00;58.00;;;;;;933693;150;28532;-79
2022/03/09 03:56:46;;;;;;;11.43;6.20;;;-1.00;57.90;;;;;;931197;150;27331;-78
2022/03/09 03:59:10;;;;;;;6.47;4.97;;;-1.00;57.90;;;;;;932763;150;27332;-78
2022/03/09 04:01:37;;;;;;;8.23;5.20;;;-1.00;58.00;;;;;;931395;150;27479;-78
2022/03/09 04:04:03;;;;;;;5.37;3.80;;;-1.00;58.00;;;;;;933316;150;27375;-79
2022/03/09 04:06:30;;;;;;;6.80;5.20;;;-1.10;58.00;;;;;;932347;150;27851;-79
2022/03/09 04:08:57;;;;;;;8.37;5.97;;;-1.10;58.00;;;;;;934519;150;27354;-78
2022/03/09 04:11:23;;;;;;;6.30;5.20;;;-1.10;58.10;;;;;;932375;150;27831;-78
2022/03/09 04:13:50;;;;;;;5.87;4.67;;;-1.10;58.20;;;;;;932989;150;27326;-79
2022/03/09 04:16:16;;;;;;;6.30;4.83;;;-1.10;58.20;;;;;;932246;150;27478;-78
2022/03/09 04:18:43;;;;;;;8.50;5.50;;;-1.10;58.20;;;;;;933069;150;27377;-79
2022/03/09 04:21:09;;;;;;;7.20;5.57;;;-1.10;58.00;;;;;;928369;150;27362;-79
2022/03/09 04:23:36;;;;;;;9.13;6.00;;;-1.10;58.00;;;;;;916675;152;27381;-78
2022/03/09 04:26:06;;;;;;;8.83;5.67;;;-1.10;58.10;;;;;;933857;148;27328;-78
2022/03/09 04:28:29;;;;;;;9.47;5.43;;;-1.10;58.00;;;;;;929414;148;27375;-78
2022/03/09 04:30:56;;;;;;;12.67;5.33;;;-1.10;58.10;;;;;;930035;148;28221;-78
2022/03/09 04:33:22;;;;;;;6.90;5.27;;;-1.10;58.20;;;;;;931535;148;28525;-79
2022/03/09 04:35:49;;;;;;;6.10;5.00;;;-1.20;58.30;;;;;;930588;148;27413;-79
2022/03/09 04:38:16;;;;;;;6.40;4.80;;;-1.20;58.30;;;;;;931585;148;27361;-78
2022/03/09 04:40:42;;;;;;;7.27;5.40;;;-1.20;58.40;;;;;;930992;148;27424;-78
2022/03/09 04:43:09;;;;;;;7.90;5.77;;;-1.20;58.50;;;;;;930939;148;27449;-78
2022/03/09 04:45:35;;;;;;;8.53;5.13;;;-1.20;58.50;;;;;;915934;151;27494;-78
2022/03/09 04:48:02;;;;;;;6.60;5.63;;;-1.20;58.40;;;;;;932934;149;27307;-79
2022/03/09 04:50:29;;;;;;;7.27;5.03;;;-1.20;58.60;;;;;;920270;150;27438;-78
2022/03/09 04:52:55;;;;;;;6.47;4.77;;;-1.30;58.60;;;;;;920681;150;27432;-78
2022/03/09 04:55:22;;;;;;;7.03;5.63;;;-1.30;58.60;;;;;;938075;148;27449;-79
2022/03/09 04:57:48;;;;;;;8.37;5.47;;;-1.30;58.60;;;;;;937227;148;27338;-79
2022/03/09 05:00:15;;;;;;;7.57;5.30;;;-1.40;58.60;;;;;;930490;148;27911;-79
2022/03/09 05:02:41;;;;;;;6.90;5.50;;;-1.40;58.60;;;;;;930750;149;27333;-78
2022/03/09 05:05:08;;;;;;;6.87;5.20;;;-1.40;58.60;;;;;;932347;148;27289;-79
2022/03/09 05:07:35;;;;;;;7.30;5.00;;;-1.40;58.70;;;;;;932112;148;27334;-78
2022/03/09 05:10:01;;;;;;;8.03;5.37;;;-1.50;58.80;;;;;;930631;148;27346;-78
2022/03/09 05:12:28;;;;;;;6.73;5.70;;;-1.50;58.80;;;;;;933159;148;27330;-78
2022/03/09 05:14:54;;;;;;;6.90;5.77;;;-1.50;58.90;;;;;;930705;148;27304;-78
2022/03/09 05:17:21;;;;;;;13.23;6.23;;;-1.50;58.90;;;;;;932022;148;27315;-79
2022/03/09 05:19:48;;;;;;;7.80;6.03;;;-1.60;59.00;;;;;;929752;149;27394;-78
2022/03/09 05:22:14;;;;;;;7.63;5.20;;;-1.60;59.00;;;;;;925138;149;27428;-79
2022/03/09 05:24:41;;;;;;;7.37;6.10;;;-1.60;59.10;;;;;;944066;148;27500;-79
2022/03/09 05:27:07;;;;;;;5.40;4.90;;;-1.60;59.00;;;;;;935966;149;27255;-79
2022/03/09 05:29:34;;;;;;;8.13;5.80;;;-1.70;59.10;;;;;;936821;149;27413;-78
2022/03/09 05:32:01;;;;;;;6.80;4.90;;;-1.70;59.10;;;;;;936895;149;27336;-78
2022/03/09 05:34:27;;;;;;;10.40;6.30;;;-1.70;59.10;;;;;;935718;149;27373;-78
2022/03/09 05:36:54;;;;;;;6.60;4.77;;;-1.70;59.10;;;;;;935812;149;27379;-79
2022/03/09 05:39:20;;;;;;;8.40;5.90;;;-1.70;59.30;;;;;;936999;149;27400;-78
2022/03/09 05:41:50;;;;;;;9.07;5.27;;;-1.70;59.30;;;;;;935681;149;27355;-78
2022/03/09 05:44:13;;;;;;;8.33;4.90;;;-1.70;59.40;;;;;;935900;149;27301;-79
2022/03/09 05:46:40;;;;;;;9.43;5.93;;;-1.70;59.40;;;;;;935406;149;27459;-78
2022/03/09 05:49:07;;;;;;;6.17;5.03;;;-1.70;59.50;;;;;;935488;149;27389;-78
2022/03/09 05:51:33;;;;;;;12.40;7.47;;;-1.70;59.50;;;;;;935634;149;27347;-78
2022/03/09 05:54:00;;;;;;;8.30;5.73;;;-1.70;59.50;;;;;;935990;149;27358;-78
2022/03/09 05:56:26;;;;;;;10.47;6.27;;;-1.70;59.50;;;;;;937878;149;27398;-79
2022/03/09 05:58:53;;;;;;;7.23;6.27;;;-1.70;59.60;;;;;;933097;149;27411;-78
2022/03/09 06:01:21;;;;;;;12.73;8.10;;;-1.70;59.50;;;;;;937080;149;27413;-79
2022/03/09 06:03:46;;;;;;;13.67;8.33;;;-1.70;59.60;;;;;;935289;149;27271;-78
2022/03/09 06:06:13;;;;;;;11.30;7.77;;;-1.70;59.70;;;;;;935524;149;27288;-78
2022/03/09 06:08:39;;;;;;;12.10;7.87;;;-1.60;59.90;;;;;;936171;149;27473;-78
2022/03/09 06:11:06;;;;;;;13.03;8.10;;;-1.60;60.00;;;;;;936533;149;27329;-78
2022/03/09 06:13:32;;;;;;;12.50;8.37;;;-1.40;60.40;;;;;;936459;149;27378;-79
2022/03/09 06:15:59;;;;;;;12.90;8.10;;;-1.20;60.90;;;;;;935989;149;27816;-78
2022/03/09 06:18:26;;;;;;;9.33;6.53;;;-0.90;61.50;;;;;;935352;149;27450;-78
2022/03/09 06:20:52;;;;;;;9.90;6.47;;;-0.50;62.00;;;;;;936142;149;27310;-78
2022/03/09 06:23:19;;;;;;;9.57;7.30;;;0.00;62.20;;;;;;931577;149;27405;-79
2022/03/09 06:25:45;;;;;;;7.00;6.03;;;0.50;61.90;;;;;;926643;149;27450;-80
2022/03/09 06:28:12;;;;;;;7.47;6.07;;;1.10;62.50;;;;;;926053;149;27395;-79
2022/03/09 06:30:39;;;;;;;9.57;5.87;;;1.70;62.50;;;;;;929461;149;27357;-79
2022/03/09 06:33:05;;;;;;;7.27;5.77;;;2.30;62.00;;;;;;927179;149;27282;-79
2022/03/09 06:35:32;;;;;;;7.23;6.23;;;3.00;61.40;;;;;;929823;149;27901;-79
2022/03/09 06:37:58;;;;;;;8.17;6.00;;;3.70;61.00;;;;;;926751;149;27442;-79
2022/03/09 06:40:25;;;;;;;6.73;5.93;;;4.40;60.60;;;;;;927482;149;27769;-80
2022/03/09 06:42:52;;;;;;;7.53;6.07;;;5.10;60.20;;;;;;927764;149;27317;-80
2022/03/09 06:45:18;;;;;;;7.07;5.73;;;5.80;59.80;;;;;;928440;149;27386;-80
2022/03/09 06:47:45;;;;;;;7.00;6.30;;;6.50;59.30;;;;;;927240;149;27314;-79
2022/03/09 06:50:11;;;;;;;9.40;6.67;;;7.20;58.90;;;;;;928810;149;27361;-80
2022/03/09 06:52:38;;;;;;;7.57;6.20;;;7.90;58.20;;;;;;926214;149;28461;-80
2022/03/09 06:55:07;;;;;;;9.77;7.00;;;8.60;57.50;;;;;;925484;149;27298;-80
2022/03/09 06:57:31;;;;;;;9.07;7.03;;;9.30;56.80;;;;;;927151;149;27415;-80
2022/03/09 06:59:58;;;;;;;9.27;7.43;;;9.90;56.00;;;;;;926862;149;27467;-79
2022/03/09 07:02:24;;;;;;;9.93;7.37;;;10.50;55.30;;;;;;928270;149;27367;-80
2022/03/09 07:04:51;;;;;;;9.87;7.23;;;11.10;54.50;;;;;;927748;149;27330;-80
2022/03/09 07:07:17;;;;;;;8.27;7.00;;;11.70;53.70;;;;;;926837;149;27320;-80
2022/03/09 07:09:44;;;;;;;8.10;7.23;;;12.20;53.00;;;;;;928012;149;28236;-79
2022/03/09 07:12:11;;;;;;;8.77;7.27;;;12.60;52.30;;;;;;926145;149;27381;-79
2022/03/09 07:14:37;;;;;;;10.17;7.60;;;13.10;51.80;;;;;;927159;149;27783;-80
2022/03/09 07:17:04;;;;;;;6.73;6.07;;;13.50;51.30;;;;;;921558;149;27318;-80
2022/03/09 07:19:30;;;;;;;7.90;6.83;;;14.00;50.90;;;;;;928613;149;27670;-80
2022/03/09 07:21:57;;;;;;;7.27;6.57;;;14.40;50.30;;;;;;928049;149;27344;-80
2022/03/09 07:24:23;;;;;;;7.13;6.43;;;14.90;49.80;;;;;;924968;149;27365;-80
2022/03/09 07:26:50;;;;;;;7.17;6.47;;;15.40;49.30;;;;;;920755;150;27437;-80
2022/03/09 07:29:17;;;;;;;6.70;6.00;;;15.80;48.70;;;;;;921445;150;27380;-80
2022/03/09 07:31:43;;;;;;;11.30;6.95;;;16.20;48.20;;;;;;922029;150;27329;-81
2022/03/09 07:34:10;;;;;;;9.03;6.33;;;16.70;47.90;;;;;;922460;150;27372;-80
2022/03/09 07:36:36;;;;;;;6.12;5.40;;;17.10;47.30;;;;;;922768;150;27343;-80
2022/03/09 07:39:03;;;;;;;8.55;5.75;;;17.60;46.60;;;;;;921412;150;27424;-81
2022/03/09 07:41:30;;;;;;;10.25;5.67;;;18.00;46.00;;;;;;922766;150;27377;-80
2022/03/09 07:43:56;;;;;;;7.28;5.30;;;18.30;44.90;;;;;;921725;150;27341;-81
2022/03/09 07:46:23;;;;;;;5.47;4.65;;;18.60;44.50;;;;;;920220;150;27328;-81
2022/03/09 07:48:49;;;;;;;6.35;5.05;;;18.80;44.10;;;;;;921031;150;27279;-81
2022/03/09 07:51:16;;;;;;;5.47;4.83;;;19.10;43.80;;;;;;923873;150;27391;-81
2022/03/09 07:53:43;;;;;;;5.30;4.80;;;19.40;43.50;;;;;;922721;150;27360;-81
2022/03/09 07:56:09;;;;;;;6.25;5.15;;;19.70;43.20;;;;;;922475;150;27287;-81
2022/03/09 07:58:36;;;;;;;5.55;4.60;;;20.00;43.00;;;;;;922333;150;27299;-81
2022/03/09 08:01:02;;;;;;;6.40;5.08;;;20.40;42.90;;;;;;922002;150;27446;-81
2022/03/09 08:03:29;;;;;;;5.15;4.67;;;20.70;42.50;;;;;;922645;150;27367;-82
2022/03/09 08:05:55;;;;;;;5.20;4.70;;;21.10;42.10;;;;;;923200;150;27347;-81
2022/03/09 08:08:23;;;;;;;6.05;5.45;;;21.50;41.70;;;;;;921715;150;27382;-81
2022/03/09 08:10:49;;;;;;;5.92;4.45;;;21.90;41.30;;;;;;921215;150;27303;-81
2022/03/09 08:13:15;;;;;;;5.35;4.85;;;22.30;41.00;;;;;;922745;150;27460;-81
2022/03/09 08:15:42;;;;;;;6.45;5.42;;;22.70;40.70;;;;;;920347;150;27320;-82
2022/03/09 08:18:09;;;;;;;6.15;5.53;;;23.10;40.10;;;;;;921120;150;27362;-81
2022/03/09 08:20:35;;;;;;;5.03;4.62;;;23.40;39.60;;;;;;921312;150;27424;-81
2022/03/09 08:23:02;;;;;;;7.20;5.40;;;23.80;39.30;;;;;;922675;150;27315;-79
2022/03/09 08:25:28;;;;;;;5.97;4.67;;;24.10;38.60;;;;;;920096;150;27448;-79
2022/03/09 08:27:55;;;;;;;5.05;4.65;;;24.40;38.10;;;;;;921136;150;27352;-79
2022/03/09 08:30:22;;;;;;;6.25;5.22;;;24.70;37.80;;;;;;922785;150;27484;-79
2022/03/09 08:32:48;;;;;;;4.95;4.53;;;24.90;37.50;;;;;;921990;150;27450;-79
2022/03/09 08:35:15;;;;;;;6.30;4.90;;;25.10;37.00;;;;;;921818;150;27284;-80
2022/03/09 08:37:41;;;;;;;4.83;4.42;;;25.30;36.80;;;;;;921099;150;27358;-80
2022/03/09 08:40:08;;;;;;;5.30;4.72;;;25.50;36.40;;;;;;924036;150;27331;-79
2022/03/09 08:42:34;;;;;;;6.17;4.80;;;25.70;36.00;;;;;;921429;150;27388;-79
2022/03/09 08:45:01;;;;;;;4.90;4.50;;;25.90;35.60;;;;;;920815;150;27453;-80
2022/03/09 08:47:28;;;;;;;4.87;4.47;;;26.10;35.30;;;;;;922593;150;27322;-79
2022/03/09 08:49:55;;;;;;;6.10;4.20;;;26.30;35.20;;;;;;922160;150;27320;-80
2022/03/09 08:52:21;;;;;;;6.12;4.85;;;26.50;35.10;;;;;;921573;150;27427;-79
2022/03/09 08:54:47;;;;;;;5.10;4.60;;;26.70;34.70;;;;;;920290;150;27308;-80
2022/03/09 08:57:14;;;;;;;4.78;4.37;;;26.80;34.30;;;;;;923819;150;27359;-80
2022/03/09 08:59:41;;;;;;;4.70;4.25;;;27.00;33.90;;;;;;922457;150;27934;-80
2022/03/09 09:02:07;;;;;;;4.67;4.15;;;27.10;33.60;;;;;;924028;150;27360;-80
2022/03/09 09:04:34;;;;;;;4.65;4.25;;;27.20;33.30;;;;;;922714;150;27299;-80
2022/03/09 09:07:00;;;;;;;5.47;4.97;;;27.20;33.20;;;;;;920053;150;27883;-79
2022/03/09 09:09:27;;;;;;;5.33;4.67;;;27.30;33.00;;;;;;918967;150;27463;-80
2022/03/09 09:11:56;;;;;;;7.83;5.03;;;27.40;32.90;;;;;;921860;150;27337;-80
2022/03/09 09:14:20;;;;;;;5.45;4.85;;;27.50;32.70;;;;;;922294;150;27287;-80
2022/03/09 09:16:47;;;;;;;5.12;4.62;;;27.50;32.30;;;;;;921183;150;27299;-80
2022/03/09 09:19:13;;;;;;;6.00;5.03;;;27.60;31.80;;;;;;923952;150;27372;-80
2022/03/09 09:21:40;;;;;;;5.33;4.83;;;27.60;31.60;;;;;;921235;150;27419;-80
2022/03/09 09:24:06;;;;;;;6.03;4.53;;;27.60;31.50;;;;;;921415;150;27366;-80
2022/03/09 09:26:33;;;;;;;5.37;4.62;;;27.60;31.50;;;;;;934884;148;27362;-81
2022/03/09 09:29:00;;;;;;;6.45;4.33;;;27.60;31.30;;;;;;936727;149;27352;-80
2022/03/09 09:31:26;;;;;;;5.70;4.83;;;27.60;31.10;;;;;;936961;149;27401;-80
2022/03/09 09:33:53;;;;;;;5.00;4.50;;;27.60;30.90;;;;;;935306;149;27355;-80
2022/03/09 09:36:20;;;;;;;4.92;4.53;;;27.60;30.90;;;;;;938510;149;27330;-80
2022/03/09 09:38:46;;;;;;;5.62;4.42;;;27.60;30.40;;;;;;934048;149;27746;-80
2022/03/09 09:41:16;;;;;;;6.80;4.90;;;27.50;30.30;;;;;;936098;149;27327;-80
2022/03/09 09:43:39;;;;;;;7.60;5.45;;;27.50;30.30;;;;;;937216;149;27353;-80
2022/03/09 09:46:06;;;;;;;6.60;5.05;;;27.40;30.10;;;;;;935533;149;27334;-80
2022/03/09 09:48:33;;;;;;;5.72;4.97;;;27.20;29.90;;;;;;934688;149;27386;-80
2022/03/09 09:50:59;;;;;;;7.50;5.05;;;27.00;29.90;;;;;;935533;149;27300;-80
2022/03/09 09:53:26;;;;;;;6.08;5.05;;;26.80;29.80;;;;;;935033;149;27365;-80
2022/03/09 09:55:52;;;;;;;4.95;4.55;;;26.50;29.80;;;;;;934302;149;27314;-80
2022/03/09 09:58:19;;;;;;;5.40;4.90;;;26.30;29.80;;;;;;935200;149;27366;-80
2022/03/09 10:00:45;;;;;;;5.55;4.97;;;26.00;29.90;;;;;;933860;149;27466;-80
2022/03/09 10:03:12;;;;;;;5.30;4.80;;;25.70;29.70;;;;;;936527;149;27287;-80
2022/03/09 10:05:39;;;;;;;6.15;5.37;;;25.40;29.30;;;;;;935440;149;27415;-80
2022/03/09 10:08:08;;;;;;;5.42;4.92;;;25.00;29.30;;;;;;936219;149;27364;-80
2022/03/09 10:10:40;;;;;;;9.83;4.95;;;24.50;29.40;;;;;;934666;149;27375;-80
2022/03/09 10:13:19;;;;;;;5.40;4.90;;;24.10;29.60;;;;;;932902;149;28512;-80
2022/03/09 10:15:45;;;;;;;5.95;4.87;;;23.70;29.60;;;;;;935318;149;27335;-80
2022/03/09 10:18:18;;;;;;;5.62;5.00;;;23.30;29.60;;;;;;935977;149;27239;-80
2022/03/09 10:20:44;;;;;;;7.22;6.53;;;22.80;29.60;;;;;;933464;149;27358;-80
2022/03/09 10:23:11;;;;;;;9.85;7.00;;;22.50;29.70;;;;;;935571;149;27373;-80
2022/03/09 10:25:38;;;;;;;8.23;5.45;;;22.10;29.80;;;;;;936795;149;27519;-80
2022/03/09 10:28:10;;;;;;;8.25;6.03;;;21.70;29.80;;;;;;907779;153;27336;-80
2022/03/09 10:30:37;;;;;;;4.90;4.47;;;21.40;29.90;;;;;;904491;153;27393;-80
2022/03/09 10:33:03;;;;;;;5.08;3.87;;;21.00;29.90;;;;;;906206;153;27358;-80
2022/03/09 10:35:30;;;;;;;5.92;4.80;;;20.70;30.00;;;;;;907216;153;27397;-80
2022/03/09 10:37:59;;;;;;;5.00;4.55;;;20.30;30.10;;;;;;907070;154;27491;-80
2022/03/09 10:40:26;;;;;;;5.62;4.92;;;20.00;30.30;;;;;;905795;154;27388;-80
2022/03/09 10:42:52;;;;;;;5.45;4.95;;;19.70;30.40;;;;;;906390;154;27350;-80
2022/03/09 10:45:19;;;;;;;4.70;4.25;;;19.40;30.40;;;;;;905015;153;27491;-79
2022/03/09 10:47:45;;;;;;;5.65;4.65;;;19.20;30.60;;;;;;907420;154;27511;-82
2022/03/09 10:50:13;;;;;;;4.65;4.22;;;18.90;30.70;;;;;;906658;154;27410;-82
2022/03/09 10:52:57;;;;;;;5.08;4.60;;;18.60;30.90;;;;;;904427;153;27371;-82
2022/03/09 10:55:29;;;;;;;7.73;4.80;;;18.40;31.10;;;;;;908140;154;27306;-81
2022/03/09 10:58:20;;;;;;;5.42;4.50;;;18.10;31.30;;;;;;907239;154;27413;-81
2022/03/09 11:00:46;;;;;;;4.50;4.10;;;17.90;31.50;;;;;;906427;154;27419;-81
2022/03/09 11:03:25;;;;;;;5.72;4.50;;;17.70;31.60;;;;;;906561;154;28152;-81
2022/03/09 11:06:01;;;;;;;8.30;5.23;;;17.50;31.70;;;;;;907230;154;27307;-81
2022/03/09 11:08:27;;;;;;;6.87;5.60;;;17.30;32.00;;;;;;888448;156;27399;-81
2022/03/09 11:10:55;;;;;;;7.40;5.17;;;17.20;32.20;;;;;;906845;154;27354;-81
2022/03/09 11:13:20;;;;;;;6.33;4.87;;;17.00;32.30;;;;;;905505;154;27426;-81
2022/03/09 11:15:49;;;;;;;5.87;4.53;;;16.80;32.40;;;;;;902499;155;27462;-81
2022/03/09 11:18:18;;;;;;;5.00;4.30;;;16.60;32.30;;;;;;900359;156;27392;-81
2022/03/09 11:20:42;;;;;;;4.77;4.27;;;16.50;32.40;;;;;;903020;154;27499;-81
2022/03/09 11:23:09;;;;;;;5.27;4.77;;;16.40;32.50;;;;;;905721;154;27417;-81
2022/03/09 11:25:35;;;;;;;5.70;4.73;;;16.30;32.40;;;;;;907305;154;27558;-81
2022/03/09 11:28:03;;;;;;;5.13;4.57;;;16.20;32.40;;;;;;917710;154;27293;-81
2022/03/09 11:30:29;;;;;;;5.63;4.30;;;16.10;32.60;;;;;;918102;152;27333;-81
2022/03/09 11:32:55;;;;;;;7.07;5.00;;;15.90;32.60;;;;;;918088;155;27350;-81
2022/03/09 11:35:34;;;;;;;5.00;4.10;;;15.80;32.80;;;;;;916207;153;27532;-81
2022/03/09 11:38:00;;;;;;;5.70;4.30;;;15.80;33.00;;;;;;915556;152;27432;-81
2022/03/09 11:40:27;;;;;;;5.17;4.43;;;15.70;33.20;;;;;;918220;152;27303;-81
2022/03/09 11:42:53;;;;;;;5.03;4.53;;;15.70;33.30;;;;;;918428;153;27322;-81
2022/03/09 11:45:20;;;;;;;4.73;4.27;;;15.70;33.40;;;;;;918871;152;27432;-81
2022/03/09 11:48:05;;;;;;;5.03;4.27;;;15.70;33.40;;;;;;919253;154;27353;-81
2022/03/09 11:50:32;;;;;;;4.33;3.93;;;15.70;33.40;;;;;;913926;155;27410;-81
2022/03/09 11:52:58;;;;;;;5.27;4.27;;;15.70;33.40;;;;;;920839;154;27442;-81
2022/03/09 11:55:25;;;;;;;4.77;4.23;;;15.60;33.40;;;;;;920180;154;27418;-81
2022/03/09 11:58:13;;;;;;;5.03;4.53;;;15.60;33.30;;;;;;921641;152;27267;-81
2022/03/09 12:00:39;;;;;;;4.77;3.70;;;15.60;33.20;;;;;;920439;154;27292;-81
2022/03/09 12:03:06;;;;;;;5.07;4.60;;;15.60;33.10;;;;;;930423;152;27331;-81
2022/03/09 12:05:32;;;;;;;4.20;3.80;;;15.50;33.00;;;;;;931830;150;27436;-81
2022/03/09 12:07:59;;;;;;;4.37;3.97;;;15.40;33.00;;;;;;923628;152;27419;-81
2022/03/09 12:10:47;;;;;;;4.30;3.90;;;15.40;33.10;;;;;;915231;153;27332;-81
2022/03/09 12:13:16;;;;;;;5.13;4.63;;;15.40;33.30;;;;;;931172;152;27610;-80
2022/03/09 12:16:01;;;;;;;5.67;4.40;;;15.30;33.40;;;;;;933782;150;27403;-80
2022/03/09 12:18:39;;;;;;;5.03;4.53;;;15.30;33.50;;;;;;919668;154;27480;-81
2022/03/09 12:21:05;;;;;;;6.73;4.70;;;15.30;33.60;;;;;;927485;149;27460;-81
2022/03/09 12:23:32;;;;;;;5.30;4.47;;;15.40;33.30;;;;;;929690;152;27428;-80
2022/03/09 12:25:59;;;;;;;4.47;4.07;;;15.40;33.60;;;;;;932284;152;27340;-80
2022/03/09 12:28:35;;;;;;;5.00;4.50;;;15.40;33.60;;;;;;933321;151;27350;-81
2022/03/09 12:31:03;;;;;;;4.33;3.90;;;15.40;33.60;;;;;;932871;150;27476;-80
2022/03/09 12:33:30;;;;;;;4.43;4.03;;;15.50;33.40;;;;;;929874;152;27289;-81
2022/03/09 12:36:05;;;;;;;4.60;4.20;;;15.50;33.30;;;;;;931743;150;27394;-80
2022/03/09 12:38:38;;;;;;;4.90;4.50;;;15.50;33.10;;;;;;932687;150;27474;-80
2022/03/09 12:41:04;;;;;;;4.13;3.80;;;15.50;33.00;;;;;;929405;150;27286;-80
2022/03/09 12:43:49;;;;;;;4.80;3.93;;;15.50;32.90;;;;;;933318;152;27304;-80
2022/03/09 12:46:16;;;;;;;4.90;4.33;;;15.50;32.90;;;;;;934048;150;27681;-80
2022/03/09 12:48:42;;;;;;;5.07;4.20;;;15.50;33.00;;;;;;932179;150;27306;-80
2022/03/09 12:51:09;;;;;;;5.17;4.50;;;15.50;33.00;;;;;;931704;150;27453;-80